sensor_id;sensor_type;location;lat;lon;timestamp;pressure;altitude;pressure_sealevel;temperature;humidity
5952;BME280;3001;42.622;23.194;2024-03-08T00:02:35;91198.72;;;18.47;44.93
5952;BME280;3001;42.622;23.194;2024-03-08T00:05:01;91200.31;;;18.52;45.00
5952;BME280;3001;42.622;23.194;2024-03-08T00:07:28;91196.28;;;18.58;44.82
5952;BME280;3001;42.622;23.194;2024-03-08T00:09:55;91202.81;;;18.67;44.77
5952;BME280;3001;42.622;23.194;2024-03-08T00:12:23;91197.75;;;18.55;44.97
5952;BME280;3001;42.622;23.194;2024-03-08T00:14:51;91201.97;;;18.60;44.69
5952;BME280;3001;42.622;23.194;2024-03-08T00:17:17;91196.56;;;18.53;44.81
5952;BME280;3001;42.622;23.194;2024-03-08T00:19:44;91200.91;;;18.64;44.79
5952;BME280;3001;42.622;23.194;2024-03-08T00:22:11;91195.13;;;18.55;44.73
5952;BME280;3001;42.622;23.194;2024-03-08T00:24:37;91188.16;;;18.44;44.78
5952;BME280;3001;42.622;23.194;2024-03-08T00:27:05;91194.81;;;18.60;44.54
5952;BME280;3001;42.622;23.194;2024-03-08T00:29:33;91187.00;;;18.64;44.28
5952;BME280;3001;42.622;23.194;2024-03-08T00:32:00;91193.63;;;18.58;44.44
5952;BME280;3001;42.622;23.194;2024-03-08T00:34:26;91193.22;;;18.56;44.29
5952;BME280;3001;42.622;23.194;2024-03-08T00:36:53;91205.47;;;18.45;43.98
5952;BME280;3001;42.622;23.194;2024-03-08T00:39:20;91196.88;;;18.48;44.06
5952;BME280;3001;42.622;23.194;2024-03-08T00:41:47;91188.50;;;18.65;43.62
5952;BME280;3001;42.622;23.194;2024-03-08T00:44:14;91190.25;;;18.57;43.21
5952;BME280;3001;42.622;23.194;2024-03-08T00:46:42;91191.59;;;18.48;43.45
5952;BME280;3001;42.622;23.194;2024-03-08T00:49:09;91190.63;;;18.37;43.80
5952;BME280;3001;42.622;23.194;2024-03-08T00:51:35;91187.75;;;18.42;43.74
5952;BME280;3001;42.622;23.194;2024-03-08T00:54:03;91183.72;;;18.48;43.45
5952;BME280;3001;42.622;23.194;2024-03-08T00:56:29;91184.22;;;18.57;42.94
5952;BME280;3001;42.622;23.194;2024-03-08T00:58:56;91178.44;;;18.48;43.45
5952;BME280;3001;42.622;23.194;2024-03-08T01:01:23;91176.03;;;18.39;43.32
5952;BME280;3001;42.622;23.194;2024-03-08T01:03:51;91180.38;;;18.51;43.35
5952;BME280;3001;42.622;23.194;2024-03-08T01:06:18;91176.81;;;18.40;43.57
5952;BME280;3001;42.622;23.194;2024-03-08T01:08:45;91175.41;;;18.46;43.74
5952;BME280;3001;42.622;23.194;2024-03-08T01:11:13;91169.44;;;18.49;43.53
5952;BME280;3001;42.622;23.194;2024-03-08T01:13:39;91167.75;;;18.37;43.76
5952;BME280;3001;42.622;23.194;2024-03-08T01:16:06;91167.28;;;18.32;43.82
5952;BME280;3001;42.622;23.194;2024-03-08T01:18:33;91157.13;;;18.11;44.12
5952;BME280;3001;42.622;23.194;2024-03-08T01:21:01;91159.38;;;18.32;43.62
5952;BME280;3001;42.622;23.194;2024-03-08T01:23:28;91163.59;;;18.36;43.80
5952;BME280;3001;42.622;23.194;2024-03-08T01:25:55;91162.97;;;18.24;44.04
5952;BME280;3001;42.622;23.194;2024-03-08T01:28:23;91161.09;;;18.24;44.14
5952;BME280;3001;42.622;23.194;2024-03-08T01:30:50;91161.13;;;18.05;43.93
5952;BME280;3001;42.622;23.194;2024-03-08T01:33:21;91162.91;;;18.01;44.13
5952;BME280;3001;42.622;23.194;2024-03-08T01:35:48;91151.38;;;18.06;44.16
5952;BME280;3001;42.622;23.194;2024-03-08T01:38:16;91155.03;;;18.01;44.45
5952;BME280;3001;42.622;23.194;2024-03-08T01:40:43;91150.56;;;18.02;44.40
5952;BME280;3001;42.622;23.194;2024-03-08T01:43:18;91145.34;;;18.05;44.58
5952;BME280;3001;42.622;23.194;2024-03-08T01:45:45;91157.16;;;18.15;44.22
5952;BME280;3001;42.622;23.194;2024-03-08T01:48:12;91155.41;;;18.00;44.70
5952;BME280;3001;42.622;23.194;2024-03-08T01:50:40;91155.13;;;18.05;44.67
5952;BME280;3001;42.622;23.194;2024-03-08T01:53:08;91155.75;;;17.98;44.77
5952;BME280;3001;42.622;23.194;2024-03-08T01:55:39;91141.97;;;18.05;44.44
5952;BME280;3001;42.622;23.194;2024-03-08T01:58:06;91141.59;;;18.06;44.24
5952;BME280;3001;42.622;23.194;2024-03-08T02:00:34;91143.16;;;18.07;44.29
5952;BME280;3001;42.622;23.194;2024-03-08T02:03:02;91151.59;;;17.97;44.66
5952;BME280;3001;42.622;23.194;2024-03-08T02:05:29;91142.69;;;17.83;44.78
5952;BME280;3001;42.622;23.194;2024-03-08T02:07:56;91138.13;;;17.80;44.97
5952;BME280;3001;42.622;23.194;2024-03-08T02:10:23;91140.69;;;17.76;44.87
5952;BME280;3001;42.622;23.194;2024-03-08T02:12:51;91132.78;;;17.76;45.35
5952;BME280;3001;42.622;23.194;2024-03-08T02:15:18;91141.00;;;17.75;45.25
5952;BME280;3001;42.622;23.194;2024-03-08T02:17:45;91136.03;;;17.70;45.09
5952;BME280;3001;42.622;23.194;2024-03-08T02:20:11;91141.50;;;17.80;45.05
5952;BME280;3001;42.622;23.194;2024-03-08T02:22:40;91135.63;;;17.87;45.04
5952;BME280;3001;42.622;23.194;2024-03-08T02:25:08;91144.63;;;17.86;45.34
5952;BME280;3001;42.622;23.194;2024-03-08T02:27:35;91135.53;;;18.02;44.57
5952;BME280;3001;42.622;23.194;2024-03-08T02:30:01;91138.31;;;18.09;44.52
5952;BME280;3001;42.622;23.194;2024-03-08T02:32:28;91140.22;;;18.12;44.34
5952;BME280;3001;42.622;23.194;2024-03-08T02:34:58;91134.59;;;17.91;44.89
5952;BME280;3001;42.622;23.194;2024-03-08T02:37:25;91138.78;;;17.96;44.55
5952;BME280;3001;42.622;23.194;2024-03-08T02:39:55;91132.38;;;17.93;44.82
5952;BME280;3001;42.622;23.194;2024-03-08T02:42:22;91135.03;;;17.97;44.83
5952;BME280;3001;42.622;23.194;2024-03-08T02:44:49;91139.75;;;18.07;44.39
5952;BME280;3001;42.622;23.194;2024-03-08T02:47:16;91127.84;;;18.13;44.07
5952;BME280;3001;42.622;23.194;2024-03-08T02:49:43;91136.94;;;17.96;44.16
5952;BME280;3001;42.622;23.194;2024-03-08T02:52:09;91136.84;;;17.93;44.52
5952;BME280;3001;42.622;23.194;2024-03-08T02:54:36;91134.59;;;17.91;44.32
5952;BME280;3001;42.622;23.194;2024-03-08T02:57:04;91138.94;;;17.84;44.62
5952;BME280;3001;42.622;23.194;2024-03-08T02:59:32;91131.56;;;17.70;45.19
5952;BME280;3001;42.622;23.194;2024-03-08T03:01:59;91138.66;;;17.89;44.77
5952;BME280;3001;42.622;23.194;2024-03-08T03:04:27;91135.53;;;17.83;44.87
5952;BME280;3001;42.622;23.194;2024-03-08T03:06:54;91142.06;;;17.89;44.58
5952;BME280;3001;42.622;23.194;2024-03-08T03:09:20;91148.63;;;17.80;44.82
5952;BME280;3001;42.622;23.194;2024-03-08T03:11:53;91150.50;;;17.79;44.80
5952;BME280;3001;42.622;23.194;2024-03-08T03:14:21;91146.72;;;17.77;44.57
5952;BME280;3001;42.622;23.194;2024-03-08T03:16:47;91154.84;;;17.72;44.79
5952;BME280;3001;42.622;23.194;2024-03-08T03:19:15;91152.72;;;17.77;44.67
5952;BME280;3001;42.622;23.194;2024-03-08T03:21:42;91160.59;;;17.77;44.76
5952;BME280;3001;42.622;23.194;2024-03-08T03:24:09;91152.91;;;17.69;44.83
5952;BME280;3001;42.622;23.194;2024-03-08T03:26:36;91149.19;;;17.70;44.49
5952;BME280;3001;42.622;23.194;2024-03-08T03:29:04;91152.22;;;17.72;44.66
5952;BME280;3001;42.622;23.194;2024-03-08T03:31:32;91157.56;;;17.75;44.33
5952;BME280;3001;42.622;23.194;2024-03-08T03:33:59;91164.41;;;17.80;44.25
5952;BME280;3001;42.622;23.194;2024-03-08T03:36:28;91160.72;;;17.65;44.47
5952;BME280;3001;42.622;23.194;2024-03-08T03:38:55;91162.66;;;17.49;43.86
5952;BME280;3001;42.622;23.194;2024-03-08T03:41:32;91163.13;;;17.36;44.09
5952;BME280;3001;42.622;23.194;2024-03-08T03:43:59;91170.25;;;17.36;43.58
5952;BME280;3001;42.622;23.194;2024-03-08T03:46:26;91172.28;;;17.27;43.75
5952;BME280;3001;42.622;23.194;2024-03-08T03:48:55;91175.09;;;17.18;43.44
5952;BME280;3001;42.622;23.194;2024-03-08T03:51:21;91178.88;;;17.21;43.09
5952;BME280;3001;42.622;23.194;2024-03-08T03:53:48;91180.03;;;17.04;43.59
5952;BME280;3001;42.622;23.194;2024-03-08T03:56:15;91186.03;;;16.89;43.89
5952;BME280;3001;42.622;23.194;2024-03-08T03:58:42;91185.59;;;17.18;43.21
5952;BME280;3001;42.622;23.194;2024-03-08T04:01:08;91191.78;;;17.10;43.01
5952;BME280;3001;42.622;23.194;2024-03-08T04:03:36;91194.66;;;17.05;43.32
5952;BME280;3001;42.622;23.194;2024-03-08T04:06:04;91196.97;;;17.07;42.95
5952;BME280;3001;42.622;23.194;2024-03-08T04:08:31;91198.13;;;17.09;43.04
5952;BME280;3001;42.622;23.194;2024-03-08T04:10:59;91199.91;;;17.05;42.94
5952;BME280;3001;42.622;23.194;2024-03-08T04:13:26;91205.34;;;16.97;42.96
5952;BME280;3001;42.622;23.194;2024-03-08T04:15:53;91209.31;;;17.06;42.81
5952;BME280;3001;42.622;23.194;2024-03-08T04:18:20;91196.72;;;16.96;43.05
5952;BME280;3001;42.622;23.194;2024-03-08T04:20:47;91210.44;;;16.90;43.06
5952;BME280;3001;42.622;23.194;2024-03-08T04:23:15;91217.63;;;16.93;43.04
5952;BME280;3001;42.622;23.194;2024-03-08T04:25:43;91214.31;;;16.80;43.24
5952;BME280;3001;42.622;23.194;2024-03-08T04:28:10;91219.16;;;16.78;43.69
5952;BME280;3001;42.622;23.194;2024-03-08T04:30:37;91214.47;;;16.87;43.45
5952;BME280;3001;42.622;23.194;2024-03-08T04:33:05;91218.47;;;16.97;43.21
5952;BME280;3001;42.622;23.194;2024-03-08T04:35:31;91224.31;;;17.06;43.11
5952;BME280;3001;42.622;23.194;2024-03-08T04:37:58;91223.78;;;17.16;43.03
5952;BME280;3001;42.622;23.194;2024-03-08T04:40:26;91231.88;;;17.26;42.81
5952;BME280;3001;42.622;23.194;2024-03-08T04:42:53;91237.56;;;17.28;42.67
5952;BME280;3001;42.622;23.194;2024-03-08T04:45:20;91236.53;;;17.33;42.69
5952;BME280;3001;42.622;23.194;2024-03-08T04:47:47;91220.91;;;17.36;42.38
5952;BME280;3001;42.622;23.194;2024-03-08T04:50:13;91228.34;;;17.34;42.40
5952;BME280;3001;42.622;23.194;2024-03-08T04:52:40;91229.34;;;17.30;42.53
5952;BME280;3001;42.622;23.194;2024-03-08T04:55:07;91227.22;;;17.35;42.65
5952;BME280;3001;42.622;23.194;2024-03-08T04:57:35;91230.59;;;17.51;42.21
5952;BME280;3001;42.622;23.194;2024-03-08T05:00:02;91225.19;;;17.44;42.15
5952;BME280;3001;42.622;23.194;2024-03-08T05:02:35;91226.31;;;17.43;42.25
5952;BME280;3001;42.622;23.194;2024-03-08T05:05:04;91223.94;;;17.38;42.27
5952;BME280;3001;42.622;23.194;2024-03-08T05:07:32;91224.66;;;17.54;42.01
5952;BME280;3001;42.622;23.194;2024-03-08T05:09:59;91235.00;;;17.47;42.07
5952;BME280;3001;42.622;23.194;2024-03-08T05:12:25;91229.75;;;17.47;42.26
5952;BME280;3001;42.622;23.194;2024-03-08T05:14:53;91228.25;;;17.46;42.29
5952;BME280;3001;42.622;23.194;2024-03-08T05:17:20;91242.56;;;17.48;42.32
5952;BME280;3001;42.622;23.194;2024-03-08T05:19:49;91243.41;;;17.52;42.33
5952;BME280;3001;42.622;23.194;2024-03-08T05:22:16;91246.53;;;17.58;42.07
5952;BME280;3001;42.622;23.194;2024-03-08T05:24:42;91244.94;;;17.38;42.21
5952;BME280;3001;42.622;23.194;2024-03-08T05:27:09;91248.41;;;17.11;42.97
5952;BME280;3001;42.622;23.194;2024-03-08T05:29:36;91258.91;;;17.27;42.72
5952;BME280;3001;42.622;23.194;2024-03-08T05:32:04;91260.03;;;17.41;42.72
5952;BME280;3001;42.622;23.194;2024-03-08T05:34:32;91261.47;;;17.39;42.65
5952;BME280;3001;42.622;23.194;2024-03-08T05:36:59;91266.00;;;17.57;42.36
5952;BME280;3001;42.622;23.194;2024-03-08T05:39:26;91268.06;;;17.48;42.71
5952;BME280;3001;42.622;23.194;2024-03-08T05:41:53;91275.50;;;17.46;42.39
5952;BME280;3001;42.622;23.194;2024-03-08T05:44:21;91275.19;;;17.48;42.45
5952;BME280;3001;42.622;23.194;2024-03-08T05:46:48;91275.16;;;17.32;42.96
5952;BME280;3001;42.622;23.194;2024-03-08T05:49:17;91281.00;;;17.26;43.10
5952;BME280;3001;42.622;23.194;2024-03-08T05:51:44;91284.41;;;17.42;42.82
5952;BME280;3001;42.622;23.194;2024-03-08T05:54:12;91283.56;;;17.22;43.27
5952;BME280;3001;42.622;23.194;2024-03-08T05:56:40;91287.81;;;17.27;42.99
5952;BME280;3001;42.622;23.194;2024-03-08T05:59:07;91291.00;;;17.20;43.33
5952;BME280;3001;42.622;23.194;2024-03-08T06:01:34;91299.03;;;17.27;43.31
5952;BME280;3001;42.622;23.194;2024-03-08T06:04:02;91292.78;;;17.32;43.33
5952;BME280;3001;42.622;23.194;2024-03-08T06:06:30;91299.25;;;17.49;43.04
5952;BME280;3001;42.622;23.194;2024-03-08T06:08:57;91297.22;;;17.43;43.15
5952;BME280;3001;42.622;23.194;2024-03-08T06:11:24;91299.13;;;17.31;43.29
5952;BME280;3001;42.622;23.194;2024-03-08T06:13:52;91310.13;;;17.21;43.74
5952;BME280;3001;42.622;23.194;2024-03-08T06:16:25;91300.94;;;17.27;43.42
5952;BME280;3001;42.622;23.194;2024-03-08T06:18:54;91310.81;;;17.33;43.07
5952;BME280;3001;42.622;23.194;2024-03-08T06:21:22;91312.84;;;17.24;43.10
5952;BME280;3001;42.622;23.194;2024-03-08T06:23:53;91309.81;;;17.22;43.35
5952;BME280;3001;42.622;23.194;2024-03-08T06:26:22;91309.03;;;17.22;43.40
5952;BME280;3001;42.622;23.194;2024-03-08T06:28:50;91314.13;;;17.30;42.98
5952;BME280;3001;42.622;23.194;2024-03-08T06:31:17;91314.66;;;17.36;43.23
5952;BME280;3001;42.622;23.194;2024-03-08T06:33:45;91319.84;;;17.48;42.90
5952;BME280;3001;42.622;23.194;2024-03-08T06:36:12;91312.53;;;17.41;42.86
5952;BME280;3001;42.622;23.194;2024-03-08T06:38:38;91309.66;;;17.31;43.24
5952;BME280;3001;42.622;23.194;2024-03-08T06:41:09;91317.09;;;17.29;43.67
5952;BME280;3001;42.622;23.194;2024-03-08T06:43:40;91316.50;;;17.35;43.24
5952;BME280;3001;42.622;23.194;2024-03-08T06:46:07;91327.63;;;17.44;43.32
5952;BME280;3001;42.622;23.194;2024-03-08T06:48:34;91326.94;;;17.47;43.11
5952;BME280;3001;42.622;23.194;2024-03-08T06:51:03;91316.59;;;17.23;43.41
5952;BME280;3001;42.622;23.194;2024-03-08T06:53:31;91323.09;;;17.29;43.27
5952;BME280;3001;42.622;23.194;2024-03-08T06:55:58;91322.16;;;17.22;43.53
5952;BME280;3001;42.622;23.194;2024-03-08T06:58:26;91325.22;;;17.08;43.64
5952;BME280;3001;42.622;23.194;2024-03-08T07:00:53;91329.72;;;17.23;43.64
5952;BME280;3001;42.622;23.194;2024-03-08T07:03:23;91332.50;;;17.30;43.76
5952;BME280;3001;42.622;23.194;2024-03-08T07:05:52;91328.34;;;17.29;43.82
5952;BME280;3001;42.622;23.194;2024-03-08T07:08:18;91328.72;;;17.28;43.80
5952;BME280;3001;42.622;23.194;2024-03-08T07:10:47;91336.06;;;17.22;43.81
5952;BME280;3001;42.622;23.194;2024-03-08T07:13:14;91343.25;;;17.25;43.79
5952;BME280;3001;42.622;23.194;2024-03-08T07:15:43;91337.75;;;17.30;43.91
5952;BME280;3001;42.622;23.194;2024-03-08T07:18:10;91346.50;;;17.34;43.93
5952;BME280;3001;42.622;23.194;2024-03-08T07:20:39;91339.50;;;17.38;43.48
5952;BME280;3001;42.622;23.194;2024-03-08T07:23:06;91345.19;;;17.28;43.97
5952;BME280;3001;42.622;23.194;2024-03-08T07:25:34;91342.84;;;17.23;44.18
5952;BME280;3001;42.622;23.194;2024-03-08T07:28:00;91339.28;;;17.31;44.14
5952;BME280;3001;42.622;23.194;2024-03-08T07:30:27;91338.84;;;17.29;44.33
5952;BME280;3001;42.622;23.194;2024-03-08T07:33:27;91336.22;;;17.14;44.85
5952;BME280;3001;42.622;23.194;2024-03-08T07:35:54;91342.84;;;17.23;44.77
5952;BME280;3001;42.622;23.194;2024-03-08T07:38:21;91341.00;;;17.39;44.64
5952;BME280;3001;42.622;23.194;2024-03-08T07:40:48;91335.25;;;17.34;44.59
5952;BME280;3001;42.622;23.194;2024-03-08T07:43:15;91338.75;;;17.26;44.93
5952;BME280;3001;42.622;23.194;2024-03-08T07:45:41;91337.31;;;17.28;45.28
5952;BME280;3001;42.622;23.194;2024-03-08T07:48:08;91336.22;;;17.29;44.99
5952;BME280;3001;42.622;23.194;2024-03-08T07:50:37;91337.03;;;17.45;44.89
5952;BME280;3001;42.622;23.194;2024-03-08T07:53:05;91340.31;;;17.42;45.01
5952;BME280;3001;42.622;23.194;2024-03-08T07:55:32;91342.28;;;17.45;45.39
5952;BME280;3001;42.622;23.194;2024-03-08T07:58:00;91341.50;;;17.60;45.09
5952;BME280;3001;42.622;23.194;2024-03-08T08:00:27;91338.69;;;17.53;45.65
5952;BME280;3001;42.622;23.194;2024-03-08T08:02:53;91336.50;;;17.55;45.79
5952;BME280;3001;42.622;23.194;2024-03-08T08:05:20;91338.94;;;17.63;45.85
5952;BME280;3001;42.622;23.194;2024-03-08T08:07:48;91334.25;;;17.88;45.41
5952;BME280;3001;42.622;23.194;2024-03-08T08:10:17;91338.94;;;17.79;45.55
5952;BME280;3001;42.622;23.194;2024-03-08T08:12:47;91336.19;;;17.91;45.20
5952;BME280;3001;42.622;23.194;2024-03-08T08:15:14;91348.63;;;17.94;45.18
5952;BME280;3001;42.622;23.194;2024-03-08T08:17:41;91338.22;;;17.97;45.28
5952;BME280;3001;42.622;23.194;2024-03-08T08:20:09;91346.56;;;17.84;45.64
5952;BME280;3001;42.622;23.194;2024-03-08T08:22:37;91345.19;;;17.90;45.63
5952;BME280;3001;42.622;23.194;2024-03-08T08:25:06;91338.56;;;18.15;45.40
5952;BME280;3001;42.622;23.194;2024-03-08T08:27:32;91339.69;;;18.29;45.73
5952;BME280;3001;42.622;23.194;2024-03-08T08:29:59;91339.19;;;18.43;45.62
5952;BME280;3001;42.622;23.194;2024-03-08T08:32:26;91330.75;;;18.53;45.33
5952;BME280;3001;42.622;23.194;2024-03-08T08:34:52;91327.56;;;18.82;45.54
5952;BME280;3001;42.622;23.194;2024-03-08T08:37:18;91332.41;;;19.02;45.13
5952;BME280;3001;42.622;23.194;2024-03-08T08:39:45;91330.56;;;19.03;44.58
5952;BME280;3001;42.622;23.194;2024-03-08T08:42:13;91334.75;;;19.26;44.60
5952;BME280;3001;42.622;23.194;2024-03-08T08:44:40;91335.69;;;19.37;44.04
5952;BME280;3001;42.622;23.194;2024-03-08T08:47:06;91327.84;;;19.40;44.18
5952;BME280;3001;42.622;23.194;2024-03-08T08:49:33;91329.31;;;19.38;43.58
5952;BME280;3001;42.622;23.194;2024-03-08T08:52:00;91321.97;;;19.50;43.40
5952;BME280;3001;42.622;23.194;2024-03-08T08:54:28;91333.88;;;19.41;43.10
5952;BME280;3001;42.622;23.194;2024-03-08T08:56:55;91326.50;;;19.27;42.78
5952;BME280;3001;42.622;23.194;2024-03-08T08:59:23;91335.22;;;19.31;42.48
5952;BME280;3001;42.622;23.194;2024-03-08T09:01:50;91330.84;;;19.39;42.27
5952;BME280;3001;42.622;23.194;2024-03-08T09:04:19;91340.53;;;19.57;42.63
5952;BME280;3001;42.622;23.194;2024-03-08T09:06:47;91335.16;;;19.50;42.22
5952;BME280;3001;42.622;23.194;2024-03-08T09:09:13;91336.56;;;19.44;42.52
5952;BME280;3001;42.622;23.194;2024-03-08T09:11:42;91332.94;;;19.78;41.26
5952;BME280;3001;42.622;23.194;2024-03-08T09:14:09;91335.41;;;19.68;40.92
5952;BME280;3001;42.622;23.194;2024-03-08T09:16:38;91334.28;;;19.43;41.67
5952;BME280;3001;42.622;23.194;2024-03-08T09:19:05;91335.41;;;19.90;41.54
5952;BME280;3001;42.622;23.194;2024-03-08T09:21:32;91333.88;;;20.15;41.51
5952;BME280;3001;42.622;23.194;2024-03-08T09:24:00;91338.44;;;20.44;41.18
5952;BME280;3001;42.622;23.194;2024-03-08T09:26:26;91338.75;;;20.72;40.54
5952;BME280;3001;42.622;23.194;2024-03-08T09:28:53;91349.53;;;20.60;39.66
5952;BME280;3001;42.622;23.194;2024-03-08T09:31:21;91348.03;;;20.89;39.71
5952;BME280;3001;42.622;23.194;2024-03-08T09:33:49;91349.13;;;20.84;39.26
5952;BME280;3001;42.622;23.194;2024-03-08T09:36:16;91337.63;;;20.73;38.79
5952;BME280;3001;42.622;23.194;2024-03-08T09:38:42;91342.88;;;20.70;38.08
5952;BME280;3001;42.622;23.194;2024-03-08T09:41:09;91351.63;;;20.77;39.37
5952;BME280;3001;42.622;23.194;2024-03-08T09:43:38;91345.28;;;20.82;39.19
5952;BME280;3001;42.622;23.194;2024-03-08T09:46:05;91357.19;;;20.69;39.95
5952;BME280;3001;42.622;23.194;2024-03-08T09:48:33;91361.91;;;21.15;39.09
5952;BME280;3001;42.622;23.194;2024-03-08T09:51:02;91364.59;;;21.22;38.91
5952;BME280;3001;42.622;23.194;2024-03-08T09:53:30;91364.75;;;21.36;37.66
5952;BME280;3001;42.622;23.194;2024-03-08T09:55:56;91366.47;;;21.58;37.51
5952;BME280;3001;42.622;23.194;2024-03-08T09:58:24;91361.22;;;21.61;37.52
5952;BME280;3001;42.622;23.194;2024-03-08T10:01:14;91356.94;;;21.93;37.72
5952;BME280;3001;42.622;23.194;2024-03-08T10:03:42;91365.03;;;22.14;36.32
5952;BME280;3001;42.622;23.194;2024-03-08T10:06:10;91362.88;;;22.30;35.02
5952;BME280;3001;42.622;23.194;2024-03-08T10:08:37;91360.03;;;22.53;35.40
5952;BME280;3001;42.622;23.194;2024-03-08T10:11:05;91367.53;;;22.44;34.68
5952;BME280;3001;42.622;23.194;2024-03-08T10:13:32;91359.75;;;22.72;35.38
5952;BME280;3001;42.622;23.194;2024-03-08T10:16:00;91363.53;;;22.71;34.90
5952;BME280;3001;42.622;23.194;2024-03-08T10:18:26;91356.38;;;22.82;34.96
5952;BME280;3001;42.622;23.194;2024-03-08T10:21:03;91371.28;;;23.17;34.55
5952;BME280;3001;42.622;23.194;2024-03-08T10:23:32;91360.34;;;23.36;34.73
5952;BME280;3001;42.622;23.194;2024-03-08T10:26:12;91366.81;;;23.46;33.29
5952;BME280;3001;42.622;23.194;2024-03-08T10:28:41;91364.56;;;23.69;33.62
5952;BME280;3001;42.622;23.194;2024-03-08T10:31:08;91374.78;;;23.56;32.15
5952;BME280;3001;42.622;23.194;2024-03-08T10:33:35;91369.50;;;23.49;32.31
5952;BME280;3001;42.622;23.194;2024-03-08T10:36:04;91365.34;;;23.59;32.21
5952;BME280;3001;42.622;23.194;2024-03-08T10:38:35;91355.84;;;23.68;32.08
5952;BME280;3001;42.622;23.194;2024-03-08T10:41:03;91363.81;;;23.79;32.54
5952;BME280;3001;42.622;23.194;2024-03-08T10:43:36;91352.47;;;23.85;31.27
5952;BME280;3001;42.622;23.194;2024-03-08T10:46:16;91351.72;;;23.88;31.17
5952;BME280;3001;42.622;23.194;2024-03-08T10:48:49;91346.81;;;23.97;31.89
5952;BME280;3001;42.622;23.194;2024-03-08T10:51:16;91351.69;;;24.20;31.18
5952;BME280;3001;42.622;23.194;2024-03-08T10:53:47;91352.47;;;24.31;30.20
5952;BME280;3001;42.622;23.194;2024-03-08T10:56:16;91347.91;;;24.42;30.80
5952;BME280;3001;42.622;23.194;2024-03-08T10:58:43;91347.88;;;24.49;30.67
5952;BME280;3001;42.622;23.194;2024-03-08T11:01:10;91341.41;;;24.60;29.49
5952;BME280;3001;42.622;23.194;2024-03-08T11:03:44;91337.22;;;24.70;30.20
5952;BME280;3001;42.622;23.194;2024-03-08T11:06:15;91337.22;;;24.70;30.16
5952;BME280;3001;42.622;23.194;2024-03-08T11:08:42;91332.69;;;24.63;29.50
5952;BME280;3001;42.622;23.194;2024-03-08T11:11:25;91319.72;;;24.76;29.71
5952;BME280;3001;42.622;23.194;2024-03-08T11:13:56;91317.06;;;24.83;30.36
5952;BME280;3001;42.622;23.194;2024-03-08T11:16:43;91320.41;;;24.97;30.30
5952;BME280;3001;42.622;23.194;2024-03-08T11:19:24;91315.81;;;25.04;29.63
5952;BME280;3001;42.622;23.194;2024-03-08T11:22:02;91321.47;;;25.10;29.17
5952;BME280;3001;42.622;23.194;2024-03-08T11:24:37;91322.25;;;25.10;28.96
5952;BME280;3001;42.622;23.194;2024-03-08T11:27:06;91321.03;;;25.29;29.08
5952;BME280;3001;42.622;23.194;2024-03-08T11:29:38;91319.56;;;25.24;28.88
5952;BME280;3001;42.622;23.194;2024-03-08T11:32:10;91313.13;;;25.08;29.12
5952;BME280;3001;42.622;23.194;2024-03-08T11:34:37;91314.69;;;24.98;29.44
5952;BME280;3001;42.622;23.194;2024-03-08T11:37:10;91303.66;;;25.07;29.09
5952;BME280;3001;42.622;23.194;2024-03-08T11:39:39;91311.56;;;25.17;29.27
5952;BME280;3001;42.622;23.194;2024-03-08T11:42:08;91313.75;;;25.36;29.16
5952;BME280;3001;42.622;23.194;2024-03-08T11:44:36;91314.81;;;25.53;29.27
5952;BME280;3001;42.622;23.194;2024-03-08T11:47:08;91321.25;;;25.55;28.53
5952;BME280;3001;42.622;23.194;2024-03-08T11:49:35;91308.94;;;25.75;28.61
5952;BME280;3001;42.622;23.194;2024-03-08T11:52:02;91320.38;;;25.69;27.87
5952;BME280;3001;42.622;23.194;2024-03-08T11:54:29;91302.81;;;25.85;28.03
5952;BME280;3001;42.622;23.194;2024-03-08T11:56:56;91311.38;;;26.07;28.66
5952;BME280;3001;42.622;23.194;2024-03-08T11:59:27;91308.06;;;25.96;27.31
5952;BME280;3001;42.622;23.194;2024-03-08T12:02:02;91304.03;;;25.74;27.50
5952;BME280;3001;42.622;23.194;2024-03-08T12:04:29;91301.72;;;25.76;26.63
5952;BME280;3001;42.622;23.194;2024-03-08T12:06:57;91308.88;;;25.82;27.30
5952;BME280;3001;42.622;23.194;2024-03-08T12:09:26;91297.06;;;25.83;27.84
5952;BME280;3001;42.622;23.194;2024-03-08T12:11:53;91301.88;;;26.06;27.52
5952;BME280;3001;42.622;23.194;2024-03-08T12:14:20;91298.38;;;26.16;27.39
5952;BME280;3001;42.622;23.194;2024-03-08T12:16:50;91295.13;;;25.94;27.60
5952;BME280;3001;42.622;23.194;2024-03-08T12:19:17;91301.78;;;26.16;26.92
5952;BME280;3001;42.622;23.194;2024-03-08T12:21:43;91303.84;;;25.98;27.17
5952;BME280;3001;42.622;23.194;2024-03-08T12:24:15;91299.22;;;26.06;27.87
5952;BME280;3001;42.622;23.194;2024-03-08T12:26:45;91296.69;;;26.32;27.76
5952;BME280;3001;42.622;23.194;2024-03-08T12:29:17;91296.22;;;26.41;27.83
5952;BME280;3001;42.622;23.194;2024-03-08T12:31:46;91294.31;;;26.78;27.62
5952;BME280;3001;42.622;23.194;2024-03-08T12:34:14;91283.31;;;26.72;26.45
5952;BME280;3001;42.622;23.194;2024-03-08T12:36:45;91283.31;;;26.72;27.15
5952;BME280;3001;42.622;23.194;2024-03-08T12:39:15;91287.88;;;26.75;27.01
5952;BME280;3001;42.622;23.194;2024-03-08T12:41:43;91284.50;;;27.01;27.03
5952;BME280;3001;42.622;23.194;2024-03-08T12:44:12;91283.69;;;27.04;26.12
5952;BME280;3001;42.622;23.194;2024-03-08T12:46:38;91286.47;;;26.97;26.35
5952;BME280;3001;42.622;23.194;2024-03-08T12:49:09;91288.63;;;27.06;26.53
5952;BME280;3001;42.622;23.194;2024-03-08T12:51:39;91283.69;;;27.04;26.05
5952;BME280;3001;42.622;23.194;2024-03-08T12:54:07;91279.16;;;27.01;25.37
5952;BME280;3001;42.622;23.194;2024-03-08T12:56:34;91278.00;;;26.72;25.54
5952;BME280;3001;42.622;23.194;2024-03-08T12:59:03;91273.06;;;26.71;26.21
5952;BME280;3001;42.622;23.194;2024-03-08T13:01:31;91287.88;;;26.39;25.69
5952;BME280;3001;42.622;23.194;2024-03-08T13:03:58;91286.88;;;26.22;26.68
5952;BME280;3001;42.622;23.194;2024-03-08T13:06:25;91274.00;;;26.17;27.01
5952;BME280;3001;42.622;23.194;2024-03-08T13:08:55;91273.66;;;26.12;27.25
5952;BME280;3001;42.622;23.194;2024-03-08T13:11:22;91277.53;;;26.07;26.95
5952;BME280;3001;42.622;23.194;2024-03-08T13:13:49;91282.31;;;26.23;26.90
5952;BME280;3001;42.622;23.194;2024-03-08T13:16:16;91270.84;;;26.29;27.18